Terminal Aerodrome Forecast
Issued by NWS

Home | Current Version | Previous Version | Text Only | Print | Product List | Glossary On
Versions: 1 2 3 4 5 6 7 8 9 10 11 12 13 14 15 16 17 18 19 20 21 22 23 24 25 26 27
000
FTUS44 KLZK 060700 AAA
TAFADF
TAF AMD
KADF 060734Z 0608/0706 VRB05KT P6SM SCT250
      TEMPO 0608/0610 5SM BR BKN002
     FM061000 VRB03KT 5SM BR VCSH SCT002 BKN025
      TEMPO 0610/0614 1SM BR BKN002
     FM061600 20008G15KT P6SM VCTS SCT030CB BKN250
     FM061800 21010G18KT P6SM VCTS SCT030CB BKN100 BKN250=

USA.gov is the U.S. government's official web portal to all federal, state and local government web resources and services.